createdAt,value
2017-10-31T20:48:01.464Z,22.10
2017-10-31T20:50:30.249Z,20.80
2017-10-31T20:52:58.661Z,20.80
2017-10-31T20:55:27.526Z,20.60
2017-10-31T20:57:56.780Z,20.50
2017-10-31T21:00:25.178Z,20.40
2017-10-31T21:02:54.055Z,20.40
2017-10-31T21:05:22.389Z,20.30
2017-10-31T21:07:50.758Z,20.60
2017-10-31T21:10:19.138Z,20.70
2017-10-31T21:12:48.325Z,20.50
2017-10-31T21:15:16.700Z,20.50
2017-10-31T21:17:45.261Z,20.30
2017-10-31T21:20:13.760Z,20.30
2017-10-31T21:22:42.118Z,20.20
2017-10-31T21:25:10.478Z,20.20
2017-10-31T21:27:39.203Z,20.20
2017-10-31T21:30:07.833Z,20.20
2017-10-31T21:32:38.070Z,20.20
2017-10-31T21:35:06.963Z,20.20
2017-10-31T21:37:36.012Z,20.20
2017-10-31T21:40:04.828Z,20.30
2017-10-31T21:42:33.349Z,20.20
2017-10-31T21:45:01.758Z,20.20
2017-10-31T21:47:31.420Z,20.20
2017-10-31T21:50:01.232Z,20.20
2017-10-31T21:52:29.765Z,20.20
2017-10-31T21:54:58.545Z,20.20
2017-10-31T21:57:27.822Z,20.20
2017-10-31T21:59:56.486Z,20.20
2017-10-31T22:02:26.218Z,20.20
2017-10-31T22:04:54.902Z,20.20
2017-10-31T22:07:23.506Z,20.20
2017-10-31T22:09:52.075Z,20.20
2017-10-31T22:12:21.367Z,20.20
2017-10-31T22:14:50.863Z,20.20
2017-10-31T22:17:19.689Z,20.20
2017-10-31T22:19:49.599Z,20.20
2017-10-31T22:22:18.008Z,20.20
2017-10-31T22:24:46.334Z,20.20
2017-10-31T22:27:15.435Z,20.20
2017-10-31T22:29:43.856Z,20.20
2017-10-31T22:32:13.522Z,20.20
2017-10-31T22:34:41.980Z,20.20
2017-10-31T22:37:11.087Z,20.20
2017-10-31T22:39:40.023Z,20.20
2017-10-31T22:42:09.132Z,20.20
2017-10-31T22:44:38.498Z,20.20
2017-10-31T22:47:07.064Z,20.20
2017-10-31T22:49:35.905Z,20.20
2017-10-31T22:52:04.650Z,20.20
2017-10-31T22:54:33.003Z,20.20
2017-10-31T22:57:01.355Z,20.20
2017-10-31T22:59:29.685Z,20.20
2017-10-31T23:01:58.037Z,20.20
2017-10-31T23:04:26.357Z,20.20
2017-10-31T23:06:55.485Z,20.20
2017-10-31T23:09:24.661Z,20.20
2017-10-31T23:11:53.013Z,20.20
2017-10-31T23:14:26.198Z,20.20
2017-10-31T23:16:54.569Z,20.20
2017-10-31T23:19:22.944Z,20.20
2017-10-31T23:21:51.301Z,20.20
2017-10-31T23:24:20.423Z,20.40
2017-10-31T23:26:48.775Z,20.40
2017-10-31T23:29:17.075Z,20.60
2017-10-31T23:31:45.453Z,20.70
2017-10-31T23:34:13.814Z,20.80
2017-10-31T23:36:42.155Z,20.80
2017-10-31T23:39:10.461Z,20.80
2017-10-31T23:41:38.790Z,20.80
2017-10-31T23:44:07.828Z,20.90
2017-10-31T23:46:36.510Z,20.80
2017-10-31T23:49:04.858Z,20.90
2017-10-31T23:51:33.238Z,20.80
2017-10-31T23:54:01.595Z,20.80
2017-10-31T23:56:30.095Z,20.80
2017-10-31T23:58:58.390Z,20.80
